sensor_id;sensor_type;location;lat;lon;timestamp;temperature;humidity
40374;DHT22;26079;45.958;12.492;2022-12-07T00:01:40;3.10;99.90
40374;DHT22;26079;45.958;12.492;2022-12-07T00:04:08;3.10;99.90
40374;DHT22;26079;45.958;12.492;2022-12-07T00:06:39;3.10;99.90
40374;DHT22;26079;45.958;12.492;2022-12-07T00:09:06;3.10;99.90
40374;DHT22;26079;45.958;12.492;2022-12-07T00:11:33;3.10;99.90
40374;DHT22;26079;45.958;12.492;2022-12-07T00:14:02;3.00;99.90
40374;DHT22;26079;45.958;12.492;2022-12-07T00:16:31;3.00;99.90
40374;DHT22;26079;45.958;12.492;2022-12-07T00:18:57;3.00;99.90
40374;DHT22;26079;45.958;12.492;2022-12-07T00:21:25;3.10;99.90
40374;DHT22;26079;45.958;12.492;2022-12-07T00:23:53;3.00;99.90
40374;DHT22;26079;45.958;12.492;2022-12-07T00:26:22;3.00;99.90
40374;DHT22;26079;45.958;12.492;2022-12-07T00:28:49;3.00;99.90
40374;DHT22;26079;45.958;12.492;2022-12-07T00:31:17;3.00;99.90
40374;DHT22;26079;45.958;12.492;2022-12-07T00:33:43;2.90;99.90
40374;DHT22;26079;45.958;12.492;2022-12-07T00:36:11;2.90;99.90
40374;DHT22;26079;45.958;12.492;2022-12-07T00:38:39;2.80;99.90
40374;DHT22;26079;45.958;12.492;2022-12-07T00:41:11;2.80;99.90
40374;DHT22;26079;45.958;12.492;2022-12-07T00:43:37;2.80;99.90
40374;DHT22;26079;45.958;12.492;2022-12-07T00:46:04;2.90;99.90
40374;DHT22;26079;45.958;12.492;2022-12-07T00:48:29;2.90;99.90
40374;DHT22;26079;45.958;12.492;2022-12-07T00:50:55;2.90;99.90
40374;DHT22;26079;45.958;12.492;2022-12-07T00:53:22;2.90;99.90
40374;DHT22;26079;45.958;12.492;2022-12-07T00:55:48;2.90;99.90
40374;DHT22;26079;45.958;12.492;2022-12-07T00:58:14;2.90;99.90
40374;DHT22;26079;45.958;12.492;2022-12-07T01:00:41;3.00;99.90
40374;DHT22;26079;45.958;12.492;2022-12-07T01:03:09;3.10;99.90
40374;DHT22;26079;45.958;12.492;2022-12-07T01:05:35;3.10;99.90
40374;DHT22;26079;45.958;12.492;2022-12-07T01:08:01;3.10;99.90
40374;DHT22;26079;45.958;12.492;2022-12-07T01:10:27;3.10;99.90
40374;DHT22;26079;45.958;12.492;2022-12-07T01:12:55;3.00;99.90
40374;DHT22;26079;45.958;12.492;2022-12-07T01:15:22;2.90;99.90
40374;DHT22;26079;45.958;12.492;2022-12-07T01:17:47;2.90;99.90
40374;DHT22;26079;45.958;12.492;2022-12-07T01:20:13;2.90;99.90
40374;DHT22;26079;45.958;12.492;2022-12-07T01:22:40;2.90;99.90
40374;DHT22;26079;45.958;12.492;2022-12-07T01:25:07;2.90;99.90
40374;DHT22;26079;45.958;12.492;2022-12-07T01:27:34;2.90;99.90
40374;DHT22;26079;45.958;12.492;2022-12-07T01:30:01;2.90;99.90
40374;DHT22;26079;45.958;12.492;2022-12-07T01:32:27;3.00;99.90
40374;DHT22;26079;45.958;12.492;2022-12-07T01:34:53;3.00;99.90
40374;DHT22;26079;45.958;12.492;2022-12-07T01:37:18;3.00;99.90
40374;DHT22;26079;45.958;12.492;2022-12-07T01:39:44;3.00;99.90
40374;DHT22;26079;45.958;12.492;2022-12-07T01:42:13;3.00;99.90
40374;DHT22;26079;45.958;12.492;2022-12-07T01:47:44;2.90;99.90
40374;DHT22;26079;45.958;12.492;2022-12-07T01:50:11;2.80;99.90
40374;DHT22;26079;45.958;12.492;2022-12-07T01:52:37;2.80;99.90
40374;DHT22;26079;45.958;12.492;2022-12-07T01:55:07;2.80;99.90
40374;DHT22;26079;45.958;12.492;2022-12-07T01:57:37;2.80;99.90
40374;DHT22;26079;45.958;12.492;2022-12-07T02:00:07;2.80;99.90
40374;DHT22;26079;45.958;12.492;2022-12-07T02:02:35;2.70;99.90
40374;DHT22;26079;45.958;12.492;2022-12-07T02:05:04;2.60;99.90
40374;DHT22;26079;45.958;12.492;2022-12-07T02:07:31;2.50;99.90
40374;DHT22;26079;45.958;12.492;2022-12-07T02:10:12;2.50;99.90
40374;DHT22;26079;45.958;12.492;2022-12-07T02:12:38;2.30;99.90
40374;DHT22;26079;45.958;12.492;2022-12-07T02:15:04;2.30;99.90
40374;DHT22;26079;45.958;12.492;2022-12-07T02:17:52;2.30;99.90
40374;DHT22;26079;45.958;12.492;2022-12-07T02:27:50;2.10;99.90
40374;DHT22;26079;45.958;12.492;2022-12-07T02:30:22;2.20;99.90
40374;DHT22;26079;45.958;12.492;2022-12-07T02:33:09;2.20;99.90
40374;DHT22;26079;45.958;12.492;2022-12-07T02:36:13;2.30;99.90
40374;DHT22;26079;45.958;12.492;2022-12-07T02:38:58;2.20;99.90
40374;DHT22;26079;45.958;12.492;2022-12-07T02:41:33;2.10;99.90
40374;DHT22;26079;45.958;12.492;2022-12-07T02:44:06;2.20;99.90
40374;DHT22;26079;45.958;12.492;2022-12-07T02:46:37;2.20;99.90
40374;DHT22;26079;45.958;12.492;2022-12-07T02:49:04;2.20;99.90
40374;DHT22;26079;45.958;12.492;2022-12-07T02:51:32;2.30;99.90
40374;DHT22;26079;45.958;12.492;2022-12-07T02:53:59;2.30;99.90
40374;DHT22;26079;45.958;12.492;2022-12-07T02:56:44;2.40;99.90
40374;DHT22;26079;45.958;12.492;2022-12-07T03:06:59;2.40;99.90
40374;DHT22;26079;45.958;12.492;2022-12-07T03:09:37;2.30;99.90
40374;DHT22;26079;45.958;12.492;2022-12-07T03:12:14;2.30;99.90
40374;DHT22;26079;45.958;12.492;2022-12-07T03:14:49;2.30;99.90
40374;DHT22;26079;45.958;12.492;2022-12-07T03:17:25;2.20;99.90
40374;DHT22;26079;45.958;12.492;2022-12-07T03:19:53;2.20;99.90
40374;DHT22;26079;45.958;12.492;2022-12-07T03:22:22;2.20;99.90
40374;DHT22;26079;45.958;12.492;2022-12-07T03:24:57;2.20;99.90
40374;DHT22;26079;45.958;12.492;2022-12-07T03:27:36;2.10;99.90
40374;DHT22;26079;45.958;12.492;2022-12-07T03:30:24;2.10;99.90
40374;DHT22;26079;45.958;12.492;2022-12-07T03:33:00;2.00;99.90
40374;DHT22;26079;45.958;12.492;2022-12-07T03:35:40;2.00;99.90
40374;DHT22;26079;45.958;12.492;2022-12-07T03:38:25;2.00;99.90
40374;DHT22;26079;45.958;12.492;2022-12-07T03:41:09;1.90;99.90
40374;DHT22;26079;45.958;12.492;2022-12-07T03:43:37;1.80;99.90
40374;DHT22;26079;45.958;12.492;2022-12-07T03:51:17;1.90;99.90
40374;DHT22;26079;45.958;12.492;2022-12-07T03:53:57;1.80;99.90
40374;DHT22;26079;45.958;12.492;2022-12-07T03:56:26;1.70;99.90
40374;DHT22;26079;45.958;12.492;2022-12-07T03:58:54;1.60;99.90
40374;DHT22;26079;45.958;12.492;2022-12-07T04:01:19;1.60;99.90
40374;DHT22;26079;45.958;12.492;2022-12-07T04:03:45;1.60;99.90
40374;DHT22;26079;45.958;12.492;2022-12-07T04:06:11;1.60;99.90
40374;DHT22;26079;45.958;12.492;2022-12-07T04:08:37;1.70;99.90
40374;DHT22;26079;45.958;12.492;2022-12-07T04:11:03;1.80;99.90
40374;DHT22;26079;45.958;12.492;2022-12-07T04:13:28;1.80;99.90
40374;DHT22;26079;45.958;12.492;2022-12-07T04:15:54;1.90;99.90
40374;DHT22;26079;45.958;12.492;2022-12-07T04:18:20;1.90;99.90
40374;DHT22;26079;45.958;12.492;2022-12-07T04:20:46;1.90;99.90
40374;DHT22;26079;45.958;12.492;2022-12-07T04:23:11;1.90;99.90
40374;DHT22;26079;45.958;12.492;2022-12-07T04:25:37;1.90;99.90
40374;DHT22;26079;45.958;12.492;2022-12-07T04:28:03;1.90;99.90
40374;DHT22;26079;45.958;12.492;2022-12-07T04:30:28;1.80;99.90
40374;DHT22;26079;45.958;12.492;2022-12-07T04:32:54;1.70;99.90
40374;DHT22;26079;45.958;12.492;2022-12-07T04:35:20;1.70;99.90
40374;DHT22;26079;45.958;12.492;2022-12-07T04:37:45;1.60;99.90
40374;DHT22;26079;45.958;12.492;2022-12-07T04:40:11;1.50;99.90
40374;DHT22;26079;45.958;12.492;2022-12-07T04:42:39;1.50;99.90
40374;DHT22;26079;45.958;12.492;2022-12-07T04:45:05;1.50;99.90
40374;DHT22;26079;45.958;12.492;2022-12-07T04:47:31;1.50;99.90
40374;DHT22;26079;45.958;12.492;2022-12-07T04:49:57;1.50;99.90
40374;DHT22;26079;45.958;12.492;2022-12-07T04:52:22;1.50;99.90
40374;DHT22;26079;45.958;12.492;2022-12-07T04:54:48;1.50;99.90
40374;DHT22;26079;45.958;12.492;2022-12-07T04:57:14;1.50;99.90
40374;DHT22;26079;45.958;12.492;2022-12-07T04:59:39;1.50;99.90
40374;DHT22;26079;45.958;12.492;2022-12-07T05:02:05;1.50;99.90
40374;DHT22;26079;45.958;12.492;2022-12-07T05:04:31;1.50;99.90
40374;DHT22;26079;45.958;12.492;2022-12-07T05:06:56;1.30;99.90
40374;DHT22;26079;45.958;12.492;2022-12-07T05:09:22;1.20;99.90
40374;DHT22;26079;45.958;12.492;2022-12-07T05:11:47;1.20;99.90
40374;DHT22;26079;45.958;12.492;2022-12-07T05:14:20;1.20;99.90
40374;DHT22;26079;45.958;12.492;2022-12-07T05:16:48;1.20;99.90
40374;DHT22;26079;45.958;12.492;2022-12-07T05:19:15;1.30;99.90
40374;DHT22;26079;45.958;12.492;2022-12-07T05:21:41;1.30;99.90
40374;DHT22;26079;45.958;12.492;2022-12-07T05:24:09;1.30;99.90
40374;DHT22;26079;45.958;12.492;2022-12-07T05:26:35;1.40;99.90
40374;DHT22;26079;45.958;12.492;2022-12-07T05:29:01;1.30;99.90
40374;DHT22;26079;45.958;12.492;2022-12-07T05:31:27;1.30;99.90
40374;DHT22;26079;45.958;12.492;2022-12-07T05:33:53;1.40;99.90
40374;DHT22;26079;45.958;12.492;2022-12-07T05:36:19;1.30;99.90
40374;DHT22;26079;45.958;12.492;2022-12-07T05:38:45;1.30;99.90
40374;DHT22;26079;45.958;12.492;2022-12-07T05:41:14;1.40;99.90
40374;DHT22;26079;45.958;12.492;2022-12-07T05:43:58;1.50;99.90
40374;DHT22;26079;45.958;12.492;2022-12-07T05:46:24;1.50;99.90
40374;DHT22;26079;45.958;12.492;2022-12-07T05:48:49;1.50;99.90
40374;DHT22;26079;45.958;12.492;2022-12-07T05:51:15;1.50;99.90
40374;DHT22;26079;45.958;12.492;2022-12-07T05:53:41;1.50;99.90
40374;DHT22;26079;45.958;12.492;2022-12-07T05:56:07;1.40;99.90
40374;DHT22;26079;45.958;12.492;2022-12-07T05:58:32;1.40;99.90
40374;DHT22;26079;45.958;12.492;2022-12-07T06:01:17;1.50;99.90
40374;DHT22;26079;45.958;12.492;2022-12-07T06:03:42;1.60;99.90
40374;DHT22;26079;45.958;12.492;2022-12-07T06:06:08;1.60;99.90
40374;DHT22;26079;45.958;12.492;2022-12-07T06:08:33;1.60;99.90
40374;DHT22;26079;45.958;12.492;2022-12-07T06:10:59;1.50;99.90
40374;DHT22;26079;45.958;12.492;2022-12-07T06:13:43;1.50;99.90
40374;DHT22;26079;45.958;12.492;2022-12-07T06:16:09;1.40;99.90
40374;DHT22;26079;45.958;12.492;2022-12-07T06:18:34;1.50;99.90
40374;DHT22;26079;45.958;12.492;2022-12-07T06:21:00;1.50;99.90
40374;DHT22;26079;45.958;12.492;2022-12-07T06:23:26;1.50;99.90
40374;DHT22;26079;45.958;12.492;2022-12-07T06:25:51;1.50;99.90
40374;DHT22;26079;45.958;12.492;2022-12-07T06:28:17;1.50;99.90
40374;DHT22;26079;45.958;12.492;2022-12-07T06:30:42;1.50;99.90
40374;DHT22;26079;45.958;12.492;2022-12-07T06:33:08;1.50;99.90
40374;DHT22;26079;45.958;12.492;2022-12-07T06:35:34;1.50;99.90
40374;DHT22;26079;45.958;12.492;2022-12-07T06:37:59;1.40;99.90
40374;DHT22;26079;45.958;12.492;2022-12-07T06:40:25;1.20;99.90
40374;DHT22;26079;45.958;12.492;2022-12-07T06:42:50;1.30;99.90
40374;DHT22;26079;45.958;12.492;2022-12-07T06:45:16;1.40;99.90
40374;DHT22;26079;45.958;12.492;2022-12-07T06:47:42;1.50;99.90
40374;DHT22;26079;45.958;12.492;2022-12-07T06:50:08;1.50;99.90
40374;DHT22;26079;45.958;12.492;2022-12-07T06:52:34;1.50;99.90
40374;DHT22;26079;45.958;12.492;2022-12-07T06:54:59;1.50;99.90
40374;DHT22;26079;45.958;12.492;2022-12-07T06:57:26;1.50;99.90
40374;DHT22;26079;45.958;12.492;2022-12-07T06:59:51;1.50;99.90
40374;DHT22;26079;45.958;12.492;2022-12-07T07:02:17;1.60;99.90
40374;DHT22;26079;45.958;12.492;2022-12-07T07:04:43;1.70;99.90
40374;DHT22;26079;45.958;12.492;2022-12-07T07:07:09;1.70;99.90
40374;DHT22;26079;45.958;12.492;2022-12-07T07:09:35;1.70;99.90
40374;DHT22;26079;45.958;12.492;2022-12-07T07:12:00;1.70;99.90
40374;DHT22;26079;45.958;12.492;2022-12-07T07:14:26;1.70;99.90
40374;DHT22;26079;45.958;12.492;2022-12-07T07:16:52;1.80;99.90
40374;DHT22;26079;45.958;12.492;2022-12-07T07:19:18;1.90;99.90
40374;DHT22;26079;45.958;12.492;2022-12-07T07:21:43;1.90;99.90
40374;DHT22;26079;45.958;12.492;2022-12-07T07:24:09;1.90;99.90
40374;DHT22;26079;45.958;12.492;2022-12-07T07:26:34;1.90;99.90
40374;DHT22;26079;45.958;12.492;2022-12-07T07:29:00;1.90;99.90
40374;DHT22;26079;45.958;12.492;2022-12-07T07:31:26;2.00;99.90
40374;DHT22;26079;45.958;12.492;2022-12-07T07:33:51;1.90;99.90
40374;DHT22;26079;45.958;12.492;2022-12-07T07:36:17;1.90;99.90
40374;DHT22;26079;45.958;12.492;2022-12-07T07:38:43;2.00;99.90
40374;DHT22;26079;45.958;12.492;2022-12-07T07:41:09;1.90;99.90
40374;DHT22;26079;45.958;12.492;2022-12-07T07:43:34;1.90;99.90
40374;DHT22;26079;45.958;12.492;2022-12-07T07:46:00;2.00;99.90
40374;DHT22;26079;45.958;12.492;2022-12-07T07:48:26;2.10;99.90
40374;DHT22;26079;45.958;12.492;2022-12-07T07:50:51;2.20;99.90
40374;DHT22;26079;45.958;12.492;2022-12-07T07:53:17;2.30;99.90
40374;DHT22;26079;45.958;12.492;2022-12-07T07:55:51;2.30;99.90
40374;DHT22;26079;45.958;12.492;2022-12-07T07:58:17;2.30;99.90
40374;DHT22;26079;45.958;12.492;2022-12-07T08:00:43;2.40;99.90
40374;DHT22;26079;45.958;12.492;2022-12-07T08:03:09;2.50;99.90
40374;DHT22;26079;45.958;12.492;2022-12-07T08:05:37;2.70;99.90
40374;DHT22;26079;45.958;12.492;2022-12-07T08:08:03;2.80;99.90
40374;DHT22;26079;45.958;12.492;2022-12-07T08:10:28;3.00;99.90
40374;DHT22;26079;45.958;12.492;2022-12-07T08:12:54;3.10;99.90
40374;DHT22;26079;45.958;12.492;2022-12-07T08:15:39;3.30;99.90
40374;DHT22;26079;45.958;12.492;2022-12-07T08:18:05;3.40;99.90
40374;DHT22;26079;45.958;12.492;2022-12-07T08:20:32;3.50;99.90
40374;DHT22;26079;45.958;12.492;2022-12-07T08:22:58;3.50;99.90
40374;DHT22;26079;45.958;12.492;2022-12-07T08:25:24;3.60;99.90
40374;DHT22;26079;45.958;12.492;2022-12-07T08:27:51;3.60;99.90
40374;DHT22;26079;45.958;12.492;2022-12-07T08:30:17;3.60;99.90
40374;DHT22;26079;45.958;12.492;2022-12-07T08:32:46;3.70;99.90
40374;DHT22;26079;45.958;12.492;2022-12-07T08:35:13;3.80;99.90
40374;DHT22;26079;45.958;12.492;2022-12-07T08:37:39;3.80;99.90
40374;DHT22;26079;45.958;12.492;2022-12-07T08:40:06;3.80;99.90
40374;DHT22;26079;45.958;12.492;2022-12-07T08:42:35;3.90;99.90
40374;DHT22;26079;45.958;12.492;2022-12-07T08:45:10;3.90;99.90
40374;DHT22;26079;45.958;12.492;2022-12-07T08:47:40;3.90;99.90
40374;DHT22;26079;45.958;12.492;2022-12-07T08:50:07;4.00;99.90
40374;DHT22;26079;45.958;12.492;2022-12-07T08:52:35;4.00;99.90
40374;DHT22;26079;45.958;12.492;2022-12-07T08:55:02;4.00;99.90
40374;DHT22;26079;45.958;12.492;2022-12-07T08:57:29;4.10;99.90
40374;DHT22;26079;45.958;12.492;2022-12-07T08:59:55;4.20;99.90
40374;DHT22;26079;45.958;12.492;2022-12-07T09:02:21;4.30;99.90
40374;DHT22;26079;45.958;12.492;2022-12-07T09:04:46;4.40;99.90
40374;DHT22;26079;45.958;12.492;2022-12-07T09:07:12;4.40;99.90
40374;DHT22;26079;45.958;12.492;2022-12-07T09:09:38;4.60;99.90
40374;DHT22;26079;45.958;12.492;2022-12-07T09:12:04;4.70;99.90
40374;DHT22;26079;45.958;12.492;2022-12-07T09:14:29;4.80;99.90
40374;DHT22;26079;45.958;12.492;2022-12-07T09:16:56;5.00;99.90
40374;DHT22;26079;45.958;12.492;2022-12-07T09:19:29;5.10;99.90
40374;DHT22;26079;45.958;12.492;2022-12-07T09:21:55;5.20;99.90
40374;DHT22;26079;45.958;12.492;2022-12-07T09:24:21;5.20;99.90
40374;DHT22;26079;45.958;12.492;2022-12-07T09:26:48;5.30;99.90
40374;DHT22;26079;45.958;12.492;2022-12-07T09:29:13;5.40;99.90
40374;DHT22;26079;45.958;12.492;2022-12-07T09:31:39;5.50;99.90
40374;DHT22;26079;45.958;12.492;2022-12-07T09:34:05;5.50;99.90
40374;DHT22;26079;45.958;12.492;2022-12-07T09:36:31;5.60;99.90
40374;DHT22;26079;45.958;12.492;2022-12-07T09:38:57;5.60;99.90
40374;DHT22;26079;45.958;12.492;2022-12-07T09:41:24;5.60;99.90
40374;DHT22;26079;45.958;12.492;2022-12-07T09:43:51;5.70;99.90
40374;DHT22;26079;45.958;12.492;2022-12-07T09:46:19;5.90;99.90
40374;DHT22;26079;45.958;12.492;2022-12-07T09:48:46;6.00;99.90
40374;DHT22;26079;45.958;12.492;2022-12-07T09:51:23;6.10;99.90
40374;DHT22;26079;45.958;12.492;2022-12-07T09:53:50;6.20;99.90
40374;DHT22;26079;45.958;12.492;2022-12-07T09:56:18;6.30;99.90
40374;DHT22;26079;45.958;12.492;2022-12-07T09:58:44;6.30;99.90
40374;DHT22;26079;45.958;12.492;2022-12-07T10:01:19;6.50;99.90
40374;DHT22;26079;45.958;12.492;2022-12-07T10:03:54;6.60;99.90
40374;DHT22;26079;45.958;12.492;2022-12-07T10:06:21;6.60;99.90
40374;DHT22;26079;45.958;12.492;2022-12-07T10:08:47;6.60;99.90
40374;DHT22;26079;45.958;12.492;2022-12-07T10:11:13;6.70;99.90
40374;DHT22;26079;45.958;12.492;2022-12-07T10:13:45;6.70;99.90
40374;DHT22;26079;45.958;12.492;2022-12-07T10:16:40;6.70;99.90
40374;DHT22;26079;45.958;12.492;2022-12-07T10:19:38;6.70;99.90
40374;DHT22;26079;45.958;12.492;2022-12-07T10:22:10;6.70;99.90
40374;DHT22;26079;45.958;12.492;2022-12-07T10:24:39;6.70;99.90
40374;DHT22;26079;45.958;12.492;2022-12-07T10:29:51;6.80;99.90
40374;DHT22;26079;45.958;12.492;2022-12-07T10:34:43;6.90;99.90
40374;DHT22;26079;45.958;12.492;2022-12-07T10:39:49;7.10;99.90
40374;DHT22;26079;45.958;12.492;2022-12-07T10:44:48;7.30;99.90
40374;DHT22;26079;45.958;12.492;2022-12-07T10:53:08;7.40;99.90
40374;DHT22;26079;45.958;12.492;2022-12-07T11:00:51;7.70;99.90
40374;DHT22;26079;45.958;12.492;2022-12-07T11:09:51;7.80;99.70
40374;DHT22;26079;45.958;12.492;2022-12-07T11:17:52;7.90;99.10
40374;DHT22;26079;45.958;12.492;2022-12-07T11:20:49;8.00;99.60
40374;DHT22;26079;45.958;12.492;2022-12-07T11:23:53;8.10;99.70
40374;DHT22;26079;45.958;12.492;2022-12-07T11:37:26;8.80;91.70
40374;DHT22;26079;45.958;12.492;2022-12-07T11:39:58;9.00;88.80
40374;DHT22;26079;45.958;12.492;2022-12-07T11:42:27;9.00;92.60
40374;DHT22;26079;45.958;12.492;2022-12-07T11:45:12;8.80;94.50
40374;DHT22;26079;45.958;12.492;2022-12-07T11:52:58;8.90;93.30
40374;DHT22;26079;45.958;12.492;2022-12-07T11:58:34;9.20;88.40
40374;DHT22;26079;45.958;12.492;2022-12-07T12:04:01;9.40;89.00
40374;DHT22;26079;45.958;12.492;2022-12-07T12:06:27;9.40;89.70
40374;DHT22;26079;45.958;12.492;2022-12-07T12:09:02;9.40;89.40
40374;DHT22;26079;45.958;12.492;2022-12-07T12:20:21;9.50;89.30
40374;DHT22;26079;45.958;12.492;2022-12-07T12:23:11;9.50;84.50
40374;DHT22;26079;45.958;12.492;2022-12-07T12:25:48;9.70;81.80
40374;DHT22;26079;45.958;12.492;2022-12-07T12:31:07;9.70;84.80
40374;DHT22;26079;45.958;12.492;2022-12-07T12:33:35;9.70;85.90
40374;DHT22;26079;45.958;12.492;2022-12-07T12:46:59;9.60;84.90
40374;DHT22;26079;45.958;12.492;2022-12-07T12:54:33;9.30;88.70
40374;DHT22;26079;45.958;12.492;2022-12-07T12:57:14;9.20;89.20
40374;DHT22;26079;45.958;12.492;2022-12-07T13:15:44;9.70;83.10
40374;DHT22;26079;45.958;12.492;2022-12-07T13:23:31;9.70;86.40
40374;DHT22;26079;45.958;12.492;2022-12-07T13:26:15;9.80;83.80
40374;DHT22;26079;45.958;12.492;2022-12-07T13:28:52;9.90;81.80
40374;DHT22;26079;45.958;12.492;2022-12-07T13:31:40;9.90;84.40
40374;DHT22;26079;45.958;12.492;2022-12-07T13:34:30;9.80;85.20
40374;DHT22;26079;45.958;12.492;2022-12-07T13:36:59;9.80;84.90
40374;DHT22;26079;45.958;12.492;2022-12-07T13:39:27;9.70;83.60
40374;DHT22;26079;45.958;12.492;2022-12-07T13:41:55;9.70;84.50
40374;DHT22;26079;45.958;12.492;2022-12-07T13:44:23;9.70;84.30
40374;DHT22;26079;45.958;12.492;2022-12-07T13:47:00;9.80;83.50
40374;DHT22;26079;45.958;12.492;2022-12-07T13:49:31;9.80;83.60
40374;DHT22;26079;45.958;12.492;2022-12-07T13:54:59;9.70;84.70
40374;DHT22;26079;45.958;12.492;2022-12-07T13:57:26;9.60;85.00
40374;DHT22;26079;45.958;12.492;2022-12-07T13:59:53;9.50;84.90
40374;DHT22;26079;45.958;12.492;2022-12-07T14:02:25;9.50;84.30
40374;DHT22;26079;45.958;12.492;2022-12-07T14:04:52;9.40;84.20
40374;DHT22;26079;45.958;12.492;2022-12-07T14:07:23;9.30;83.30
40374;DHT22;26079;45.958;12.492;2022-12-07T14:10:04;9.10;85.40
40374;DHT22;26079;45.958;12.492;2022-12-07T14:12:32;9.10;84.30
40374;DHT22;26079;45.958;12.492;2022-12-07T14:14:59;9.10;85.20
40374;DHT22;26079;45.958;12.492;2022-12-07T14:17:27;9.00;87.60
40374;DHT22;26079;45.958;12.492;2022-12-07T14:20:00;8.90;86.90
40374;DHT22;26079;45.958;12.492;2022-12-07T14:25:09;8.90;83.20
40374;DHT22;26079;45.958;12.492;2022-12-07T14:27:36;9.00;84.50
40374;DHT22;26079;45.958;12.492;2022-12-07T14:30:04;9.00;85.00
40374;DHT22;26079;45.958;12.492;2022-12-07T14:32:31;9.10;89.80
40374;DHT22;26079;45.958;12.492;2022-12-07T14:35:10;9.00;90.60
40374;DHT22;26079;45.958;12.492;2022-12-07T14:37:37;8.90;91.00
40374;DHT22;26079;45.958;12.492;2022-12-07T14:40:04;8.70;88.00
40374;DHT22;26079;45.958;12.492;2022-12-07T14:42:31;8.70;88.50
40374;DHT22;26079;45.958;12.492;2022-12-07T14:44:58;8.70;91.40
40374;DHT22;26079;45.958;12.492;2022-12-07T14:47:25;8.60;91.70
40374;DHT22;26079;45.958;12.492;2022-12-07T14:49:51;8.40;92.30
40374;DHT22;26079;45.958;12.492;2022-12-07T14:52:21;8.40;96.80
40374;DHT22;26079;45.958;12.492;2022-12-07T14:54:46;8.30;97.50
40374;DHT22;26079;45.958;12.492;2022-12-07T14:57:12;8.20;95.00
40374;DHT22;26079;45.958;12.492;2022-12-07T14:59:38;8.20;97.80
40374;DHT22;26079;45.958;12.492;2022-12-07T15:02:05;8.10;99.70
40374;DHT22;26079;45.958;12.492;2022-12-07T15:04:31;8.00;99.20
40374;DHT22;26079;45.958;12.492;2022-12-07T15:07:02;7.80;99.30
40374;DHT22;26079;45.958;12.492;2022-12-07T15:09:28;7.70;99.00
40374;DHT22;26079;45.958;12.492;2022-12-07T15:11:54;7.60;98.10
40374;DHT22;26079;45.958;12.492;2022-12-07T15:14:20;7.60;99.90
40374;DHT22;26079;45.958;12.492;2022-12-07T15:16:45;7.40;99.90
40374;DHT22;26079;45.958;12.492;2022-12-07T15:19:20;7.20;99.90
40374;DHT22;26079;45.958;12.492;2022-12-07T15:21:50;6.90;99.90
40374;DHT22;26079;45.958;12.492;2022-12-07T15:24:16;6.90;99.90
40374;DHT22;26079;45.958;12.492;2022-12-07T15:26:42;6.80;99.90
40374;DHT22;26079;45.958;12.492;2022-12-07T15:29:08;6.80;99.90
40374;DHT22;26079;45.958;12.492;2022-12-07T15:31:34;6.80;99.90
40374;DHT22;26079;45.958;12.492;2022-12-07T15:34:00;6.80;99.90
40374;DHT22;26079;45.958;12.492;2022-12-07T15:36:29;6.80;99.90
40374;DHT22;26079;45.958;12.492;2022-12-07T15:38:55;6.70;99.90
40374;DHT22;26079;45.958;12.492;2022-12-07T15:41:21;6.60;99.90
40374;DHT22;26079;45.958;12.492;2022-12-07T15:43:47;6.60;99.90
40374;DHT22;26079;45.958;12.492;2022-12-07T15:46:33;6.50;99.90
40374;DHT22;26079;45.958;12.492;2022-12-07T15:49:03;6.40;99.90
40374;DHT22;26079;45.958;12.492;2022-12-07T15:51:28;6.30;99.90
40374;DHT22;26079;45.958;12.492;2022-12-07T15:53:54;6.20;99.90
40374;DHT22;26079;45.958;12.492;2022-12-07T15:56:20;6.10;99.90
40374;DHT22;26079;45.958;12.492;2022-12-07T15:58:46;6.00;99.90
40374;DHT22;26079;45.958;12.492;2022-12-07T16:01:17;6.00;99.90
40374;DHT22;26079;45.958;12.492;2022-12-07T16:03:44;5.90;99.90
40374;DHT22;26079;45.958;12.492;2022-12-07T16:06:11;5.80;99.90
40374;DHT22;26079;45.958;12.492;2022-12-07T16:08:37;5.70;99.90
40374;DHT22;26079;45.958;12.492;2022-12-07T16:11:07;5.70;99.90
40374;DHT22;26079;45.958;12.492;2022-12-07T16:13:33;5.60;99.90
40374;DHT22;26079;45.958;12.492;2022-12-07T16:16:03;5.50;99.90
40374;DHT22;26079;45.958;12.492;2022-12-07T16:18:30;5.40;99.90
40374;DHT22;26079;45.958;12.492;2022-12-07T16:20:55;5.30;99.90
40374;DHT22;26079;45.958;12.492;2022-12-07T16:23:21;5.30;99.90
40374;DHT22;26079;45.958;12.492;2022-12-07T16:25:47;5.20;99.90
40374;DHT22;26079;45.958;12.492;2022-12-07T16:28:12;5.10;99.90
40374;DHT22;26079;45.958;12.492;2022-12-07T16:30:38;5.10;99.90
40374;DHT22;26079;45.958;12.492;2022-12-07T16:33:04;5.00;99.90
40374;DHT22;26079;45.958;12.492;2022-12-07T16:35:29;5.00;99.90
40374;DHT22;26079;45.958;12.492;2022-12-07T16:37:55;4.90;99.90
40374;DHT22;26079;45.958;12.492;2022-12-07T16:40:21;4.90;99.90
40374;DHT22;26079;45.958;12.492;2022-12-07T16:42:46;4.90;99.90
40374;DHT22;26079;45.958;12.492;2022-12-07T16:45:12;4.90;99.90
40374;DHT22;26079;45.958;12.492;2022-12-07T16:47:39;4.80;99.90
40374;DHT22;26079;45.958;12.492;2022-12-07T16:50:05;4.80;99.90
40374;DHT22;26079;45.958;12.492;2022-12-07T16:52:33;4.70;99.90
40374;DHT22;26079;45.958;12.492;2022-12-07T16:54:59;4.70;99.90
40374;DHT22;26079;45.958;12.492;2022-12-07T16:57:24;4.60;99.90
40374;DHT22;26079;45.958;12.492;2022-12-07T16:59:51;4.60;99.90
40374;DHT22;26079;45.958;12.492;2022-12-07T17:02:18;4.60;99.90
40374;DHT22;26079;45.958;12.492;2022-12-07T17:04:43;4.60;99.90
40374;DHT22;26079;45.958;12.492;2022-12-07T17:07:09;4.60;99.90
40374;DHT22;26079;45.958;12.492;2022-12-07T17:09:36;4.60;99.90
40374;DHT22;26079;45.958;12.492;2022-12-07T17:12:02;4.60;99.90
40374;DHT22;26079;45.958;12.492;2022-12-07T17:14:28;4.60;99.90
40374;DHT22;26079;45.958;12.492;2022-12-07T17:17:12;4.50;99.90
40374;DHT22;26079;45.958;12.492;2022-12-07T17:19:38;4.50;99.90
40374;DHT22;26079;45.958;12.492;2022-12-07T17:22:04;4.50;99.90
40374;DHT22;26079;45.958;12.492;2022-12-07T17:24:30;4.50;99.90
40374;DHT22;26079;45.958;12.492;2022-12-07T17:26:56;4.40;99.90
40374;DHT22;26079;45.958;12.492;2022-12-07T17:29:22;4.40;99.90
40374;DHT22;26079;45.958;12.492;2022-12-07T17:31:48;4.40;99.90
40374;DHT22;26079;45.958;12.492;2022-12-07T17:34:15;4.40;99.90
40374;DHT22;26079;45.958;12.492;2022-12-07T17:36:41;4.40;99.90
40374;DHT22;26079;45.958;12.492;2022-12-07T17:39:11;4.40;99.90
40374;DHT22;26079;45.958;12.492;2022-12-07T17:41:38;4.40;99.90
40374;DHT22;26079;45.958;12.492;2022-12-07T17:44:23;4.40;99.90
40374;DHT22;26079;45.958;12.492;2022-12-07T17:46:51;4.30;99.90
40374;DHT22;26079;45.958;12.492;2022-12-07T17:49:22;4.30;99.90
40374;DHT22;26079;45.958;12.492;2022-12-07T17:51:51;4.30;99.90
40374;DHT22;26079;45.958;12.492;2022-12-07T17:54:35;4.20;99.90